createdAt,value
2018-04-07T00:01:08.264Z,92120.55
2018-04-07T00:03:34.552Z,92117.07
2018-04-07T00:06:01.550Z,92121.13
2018-04-07T00:08:27.869Z,92118.73
2018-04-07T00:10:54.145Z,92125.49
2018-04-07T00:13:20.418Z,92122.74
2018-04-07T00:15:46.780Z,92130.17
2018-04-07T00:18:16.809Z,92125.53
2018-04-07T00:20:43.087Z,92126.09
2018-04-07T00:23:09.595Z,92115.88
2018-04-07T00:25:35.956Z,92121.85
2018-04-07T00:28:02.228Z,92119.53
2018-04-07T00:30:28.512Z,92126.16
2018-04-07T00:32:54.836Z,92124.94
2018-04-07T00:35:21.133Z,92125.46
2018-04-07T00:37:47.529Z,92131.97
2018-04-07T00:40:13.849Z,92139.74
2018-04-07T00:42:40.164Z,92130.34
2018-04-07T00:45:06.666Z,92122.76
2018-04-07T00:47:32.992Z,92120.84
2018-04-07T00:49:59.331Z,92130.77
2018-04-07T00:52:25.669Z,92135.25
2018-04-07T00:54:52.005Z,92133.95
2018-04-07T00:57:18.330Z,92135.91
2018-04-07T00:59:44.669Z,92141.55
2018-04-07T01:02:11.026Z,92138.61
2018-04-07T01:04:40.292Z,92136.84
2018-04-07T01:07:06.567Z,92137.66
2018-04-07T01:09:32.885Z,92133.17
2018-04-07T01:11:59.209Z,92140.44
2018-04-07T01:14:25.524Z,92138.44
2018-04-07T01:16:51.849Z,92140.78
2018-04-07T01:19:20.121Z,92133.58
2018-04-07T01:21:46.396Z,92141.47
2018-04-07T01:24:12.773Z,92143.98
2018-04-07T01:26:39.054Z,92140.05
2018-04-07T01:29:05.325Z,92143.02
2018-04-07T01:31:31.658Z,92150.75
2018-04-07T01:33:57.933Z,92151.88
2018-04-07T01:36:24.205Z,92158.09
2018-04-07T01:38:50.518Z,92165.66
2018-04-07T01:41:16.790Z,92170.19
2018-04-07T01:43:43.080Z,92159.49
2018-04-07T01:46:09.451Z,92156.79
2018-04-07T01:48:35.725Z,92161.77
2018-04-07T01:51:02.000Z,92152.45
2018-04-07T01:53:28.521Z,92157.48
2018-04-07T01:55:54.833Z,92155.80
2018-04-07T01:58:21.126Z,92153.65
2018-04-07T02:00:47.400Z,92152.81
2018-04-07T02:03:13.737Z,92151.34
2018-04-07T02:05:40.041Z,92148.81
2018-04-07T02:08:06.442Z,92156.31
2018-04-07T02:10:32.720Z,92152.41
2018-04-07T02:12:59.004Z,92152.45
2018-04-07T02:15:25.494Z,92161.41
2018-04-07T02:17:51.825Z,92165.16
2018-04-07T02:20:18.332Z,92167.91
2018-04-07T02:22:44.608Z,92170.96
2018-04-07T02:25:10.918Z,92166.64
2018-04-07T02:27:38.887Z,92165.05
2018-04-07T02:30:05.171Z,92163.71
2018-04-07T02:32:31.446Z,92160.38
2018-04-07T02:34:58.064Z,92159.80
2018-04-07T02:37:24.438Z,92169.19
2018-04-07T02:39:50.716Z,92160.59
2018-04-07T02:42:17.006Z,92163.73
2018-04-07T02:44:43.477Z,92165.95
2018-04-07T02:47:09.762Z,92167.88
2018-04-07T02:49:36.039Z,92178.11
2018-04-07T02:52:02.785Z,92181.27
2018-04-07T02:54:29.077Z,92181.12
2018-04-07T02:56:55.414Z,92193.17
2018-04-07T02:59:21.777Z,92200.70
2018-04-07T03:01:48.122Z,92207.16
2018-04-07T03:04:14.518Z,92208.88
2018-04-07T03:06:41.052Z,92202.09
2018-04-07T03:09:07.357Z,92208.33
2018-04-07T03:11:33.733Z,92212.77
2018-04-07T03:14:00.010Z,92204.98
2018-04-07T03:16:26.288Z,92206.87
2018-04-07T03:18:52.615Z,92215.08
2018-04-07T03:21:18.891Z,92217.30
2018-04-07T03:23:45.172Z,92214.66
2018-04-07T03:26:11.662Z,92220.20
2018-04-07T03:28:37.952Z,92205.96
2018-04-07T03:31:04.326Z,92214.48
2018-04-07T03:33:31.591Z,92220.47
2018-04-07T03:35:57.866Z,92210.08
2018-04-07T03:38:24.196Z,92215.37
2018-04-07T03:40:52.998Z,92222.19
2018-04-07T03:43:19.275Z,92225.44
2018-04-07T03:45:45.602Z,92228.52
2018-04-07T03:48:12.113Z,92235.55
2018-04-07T03:50:38.445Z,92236.10
2018-04-07T03:53:04.772Z,92235.27
2018-04-07T03:55:31.043Z,92243.16
2018-04-07T03:57:57.436Z,92240.66
2018-04-07T04:00:23.867Z,92243.81
2018-04-07T04:02:50.150Z,92255.03
2018-04-07T04:05:16.469Z,92254.64
2018-04-07T04:07:43.652Z,92251.30
2018-04-07T04:10:09.950Z,92256.32
2018-04-07T04:12:36.216Z,92251.25
2018-04-07T04:15:02.567Z,92253.95
2018-04-07T04:17:28.890Z,92262.25
2018-04-07T04:19:56.104Z,92265.16
2018-04-07T04:22:22.492Z,92264.27
2018-04-07T04:24:48.768Z,92262.84
2018-04-07T04:27:15.052Z,92262.45
2018-04-07T04:29:41.397Z,92268.73
2018-04-07T04:32:07.673Z,92271.66
2018-04-07T04:34:33.964Z,92276.84
2018-04-07T04:37:01.562Z,92281.58
2018-04-07T04:39:27.996Z,92286.17
2018-04-07T04:41:54.321Z,92289.48
2018-04-07T04:44:20.610Z,92299.38
2018-04-07T04:46:46.924Z,92302.78
2018-04-07T04:49:13.262Z,92306.85
2018-04-07T04:51:39.562Z,92301.39
2018-04-07T04:54:05.881Z,92303.27
2018-04-07T04:56:32.177Z,92303.56
2018-04-07T04:58:58.462Z,92298.81
2018-04-07T05:01:24.837Z,92294.33
2018-04-07T05:03:51.119Z,92291.93
2018-04-07T05:06:17.422Z,92301.77
2018-04-07T05:08:46.469Z,92302.23
2018-04-07T05:11:12.739Z,92306.52
2018-04-07T05:13:39.005Z,92312.02
2018-04-07T05:16:05.378Z,92309.26
2018-04-07T05:18:31.696Z,92319.30
2018-04-07T05:20:57.998Z,92319.64
2018-04-07T05:23:24.808Z,92330.88
2018-04-07T05:25:51.106Z,92333.97
2018-04-07T05:28:17.394Z,92328.64
2018-04-07T05:30:43.756Z,92336.76
2018-04-07T05:33:10.025Z,92341.83
2018-04-07T05:35:36.307Z,92353.47
2018-04-07T05:38:02.858Z,92341.30
2018-04-07T05:40:29.175Z,92337.89
2018-04-07T05:42:55.461Z,92348.98
2018-04-07T05:45:21.929Z,92357.45
2018-04-07T05:47:48.234Z,92357.54
2018-04-07T05:50:14.640Z,92362.61
2018-04-07T05:52:40.928Z,92358.41
2018-04-07T05:55:07.224Z,92361.27
2018-04-07T05:57:33.589Z,92356.52
2018-04-07T05:59:59.863Z,92348.14
2018-04-07T06:02:26.146Z,92347.56
2018-04-07T06:04:52.651Z,92350.66
2018-04-07T06:07:18.923Z,92353.89
2018-04-07T06:09:45.485Z,92361.25
2018-04-07T06:12:11.819Z,92358.91
2018-04-07T06:14:38.154Z,92360.36
2018-04-07T06:17:04.489Z,92357.05
2018-04-07T06:19:30.763Z,92346.89
2018-04-07T06:21:57.044Z,92332.98
2018-04-07T06:24:23.428Z,92329.34
2018-04-07T06:26:49.717Z,92347.23
2018-04-07T06:29:16.001Z,92363.59
2018-04-07T06:31:42.456Z,92369.56
2018-04-07T06:34:08.801Z,92374.03
2018-04-07T06:36:35.086Z,92364.30
2018-04-07T06:39:01.424Z,92372.41
2018-04-07T06:41:27.803Z,92379.70
2018-04-07T06:43:54.077Z,92378.44
2018-04-07T06:46:20.401Z,92377.20
2018-04-07T06:48:46.722Z,92378.82
2018-04-07T06:51:13.005Z,92380.80
2018-04-07T06:53:42.322Z,92364.49
2018-04-07T06:56:08.832Z,92354.92
2018-04-07T06:58:35.109Z,92364.29
2018-04-07T07:01:01.484Z,92379.70
2018-04-07T07:03:27.756Z,92376.05
2018-04-07T07:05:54.040Z,92371.83
2018-04-07T07:08:20.472Z,92385.72
2018-04-07T07:10:52.902Z,92390.47
2018-04-07T07:13:19.170Z,92397.22
2018-04-07T07:15:45.384Z,92398.30
2018-04-07T07:18:11.866Z,92400.95
2018-04-07T07:20:38.261Z,92403.75
2018-04-07T07:23:04.475Z,92403.34
2018-04-07T07:25:30.713Z,92410.83
2018-04-07T07:27:57.133Z,92417.66
2018-04-07T07:30:23.331Z,92421.34
2018-04-07T07:32:49.550Z,92412.14
2018-04-07T07:35:15.789Z,92415.28
2018-04-07T07:37:41.982Z,92422.32
2018-04-07T07:40:08.185Z,92423.79
2018-04-07T07:42:34.481Z,92433.50
2018-04-07T07:45:00.688Z,92429.59
2018-04-07T07:47:26.910Z,92436.45
2018-04-07T07:49:53.342Z,92432.93
2018-04-07T07:52:19.532Z,92435.45
2018-04-07T07:54:45.768Z,92436.05
2018-04-07T07:57:11.960Z,92436.61
2018-04-07T07:59:38.161Z,92436.86
2018-04-07T08:02:04.449Z,92440.27
2018-04-07T08:04:30.696Z,92442.06
2018-04-07T08:06:56.886Z,92451.59
2018-04-07T08:09:23.636Z,92445.55
2018-04-07T08:11:50.109Z,92440.98
2018-04-07T08:14:16.306Z,92445.09
2018-04-07T08:16:42.557Z,92456.16
2018-04-07T08:19:08.767Z,92464.41
2018-04-07T08:21:34.948Z,92468.44
2018-04-07T08:24:01.245Z,92465.41
2018-04-07T08:26:27.452Z,92469.80
2018-04-07T08:28:53.842Z,92472.64
2018-04-07T08:31:20.205Z,92475.91
2018-04-07T08:33:46.498Z,92473.03
2018-04-07T08:36:12.790Z,92478.29
2018-04-07T08:38:39.326Z,92480.93
2018-04-07T08:41:05.661Z,92477.72
2018-04-07T08:43:32.852Z,92476.69
2018-04-07T08:45:59.122Z,92480.85
2018-04-07T08:48:25.439Z,92482.70
2018-04-07T08:50:51.791Z,92488.09
2018-04-07T08:53:18.197Z,92481.59
2018-04-07T08:55:44.488Z,92481.41
2018-04-07T08:58:11.073Z,92492.00
2018-04-07T09:00:37.433Z,92492.27
2018-04-07T09:03:03.752Z,92496.37
2018-04-07T09:05:33.931Z,92494.53
2018-04-07T09:08:00.291Z,92492.47
2018-04-07T09:10:26.618Z,92509.34
2018-04-07T09:12:53.021Z,92507.98
2018-04-07T09:15:19.363Z,92504.48
2018-04-07T09:17:45.656Z,92505.19
2018-04-07T09:20:12.197Z,92501.87
2018-04-07T09:22:38.497Z,92504.55
2018-04-07T09:25:04.849Z,92501.13
2018-04-07T09:27:31.147Z,92509.69
2018-04-07T09:29:57.921Z,92504.97
2018-04-07T09:32:24.267Z,92503.44
2018-04-07T09:34:50.536Z,92505.50
2018-04-07T09:37:16.912Z,92501.11
2018-04-07T09:39:43.199Z,92493.49
2018-04-07T09:42:09.531Z,92499.39
2018-04-07T09:44:36.180Z,92499.98
2018-04-07T09:47:02.503Z,92493.87
2018-04-07T09:49:28.855Z,92500.52
2018-04-07T09:51:55.137Z,92498.98
2018-04-07T09:54:21.436Z,92496.41
2018-04-07T09:56:47.813Z,92482.62
2018-04-07T09:59:14.112Z,92482.47
2018-04-07T10:01:41.291Z,92483.42
2018-04-07T10:04:07.622Z,92486.55
2018-04-07T10:06:33.914Z,92489.47
2018-04-07T10:09:00.229Z,92481.30
2018-04-07T10:11:27.598Z,92479.22
2018-04-07T10:13:53.910Z,92480.75
2018-04-07T10:16:20.206Z,92485.31
2018-04-07T10:18:46.624Z,92485.56
2018-04-07T10:21:12.920Z,92481.48
2018-04-07T10:23:39.294Z,92480.58
2018-04-07T10:26:05.651Z,92475.96
2018-04-07T10:28:31.937Z,92468.38
2018-04-07T10:30:58.221Z,92471.11
2018-04-07T10:33:24.557Z,92471.50
2018-04-07T10:35:50.875Z,92470.10
2018-04-07T10:38:17.179Z,92464.84
2018-04-07T10:40:43.619Z,92470.99
2018-04-07T10:43:10.676Z,92467.62
2018-04-07T10:45:36.956Z,92477.41
2018-04-07T10:48:03.325Z,92476.80
2018-04-07T10:50:29.620Z,92484.09
2018-04-07T10:52:55.899Z,92479.94
2018-04-07T10:55:22.228Z,92474.97
2018-04-07T10:57:48.508Z,92481.96
2018-04-07T11:00:14.794Z,92485.31
2018-04-07T11:02:41.161Z,92482.84
2018-04-07T11:05:07.482Z,92487.30
2018-04-07T11:07:33.769Z,92492.45
2018-04-07T11:10:00.272Z,92485.27
2018-04-07T11:12:26.807Z,92480.75
2018-04-07T11:14:53.202Z,92490.81
2018-04-07T11:17:19.890Z,92480.64
2018-04-07T11:19:46.185Z,92480.63
2018-04-07T11:22:12.484Z,92480.83
2018-04-07T11:24:39.021Z,92481.04
2018-04-07T11:27:05.528Z,92483.44
2018-04-07T11:29:32.038Z,92487.50
2018-04-07T11:31:58.321Z,92487.69
2018-04-07T11:34:24.689Z,92480.42
2018-04-07T11:36:51.005Z,92481.16
2018-04-07T11:39:17.290Z,92477.87
2018-04-07T11:41:43.580Z,92475.80
2018-04-07T11:44:10.108Z,92475.58
2018-04-07T11:46:36.390Z,92468.80
2018-04-07T11:49:02.728Z,92469.63
2018-04-07T11:51:29.012Z,92464.77
2018-04-07T11:53:55.359Z,92460.44
2018-04-07T11:56:21.652Z,92465.23
2018-04-07T11:58:48.013Z,92460.80
2018-04-07T12:01:14.494Z,92467.20
2018-04-07T12:03:40.780Z,92463.72
2018-04-07T12:06:07.072Z,92452.52
2018-04-07T12:08:33.576Z,92445.94
2018-04-07T12:11:00.196Z,92437.47
2018-04-07T12:13:27.687Z,92435.38
2018-04-07T12:15:54.018Z,92426.41
2018-04-07T12:18:20.318Z,92426.38
2018-04-07T12:20:46.673Z,92426.65
2018-04-07T12:23:12.946Z,92422.08
2018-04-07T12:25:39.312Z,92424.33
2018-04-07T12:28:05.720Z,92424.91
2018-04-07T12:30:32.013Z,92421.10
2018-04-07T12:32:59.310Z,92423.20
2018-04-07T12:35:25.674Z,92422.63
2018-04-07T12:37:52.018Z,92426.05
2018-04-07T12:40:18.300Z,92421.50
2018-04-07T12:42:44.622Z,92416.48
2018-04-07T12:45:10.909Z,92416.24
2018-04-07T12:47:37.292Z,92410.70
2018-04-07T12:50:03.628Z,92417.87
2018-04-07T12:52:29.909Z,92407.94
2018-04-07T12:54:56.493Z,92407.33
2018-04-07T12:57:23.395Z,92408.91
2018-04-07T12:59:49.741Z,92409.04
2018-04-07T13:02:16.052Z,92402.28
2018-04-07T13:04:42.420Z,92403.30
2018-04-07T13:07:08.801Z,92408.19
2018-04-07T13:09:35.113Z,92401.98
2018-04-07T13:12:01.382Z,92403.50
2018-04-07T13:14:27.716Z,92403.23
2018-04-07T13:16:54.060Z,92406.66
2018-04-07T13:19:20.333Z,92409.53
2018-04-07T13:21:46.660Z,92410.69
2018-04-07T13:24:12.933Z,92417.06
2018-04-07T13:26:39.213Z,92413.25
2018-04-07T13:29:05.820Z,92412.42
2018-04-07T13:31:32.115Z,92415.77
2018-04-07T13:33:58.511Z,92411.98
2018-04-07T13:36:24.802Z,92407.41
2018-04-07T13:38:51.169Z,92411.53
2018-04-07T13:41:17.457Z,92412.48
2018-04-07T13:43:43.733Z,92416.54
2018-04-07T13:46:13.102Z,92416.95
2018-04-07T13:48:39.396Z,92419.33
2018-04-07T13:51:05.723Z,92418.89
2018-04-07T13:53:32.067Z,92422.73
2018-04-07T13:55:58.384Z,92427.84
2018-04-07T13:58:24.682Z,92427.28
2018-04-07T14:00:51.126Z,92427.84
2018-04-07T14:03:17.422Z,92429.16
2018-04-07T14:05:43.719Z,92428.15
2018-04-07T14:08:10.222Z,92435.66
2018-04-07T14:10:36.541Z,92439.75
2018-04-07T14:13:02.848Z,92436.48
2018-04-07T14:15:29.137Z,92439.48
2018-04-07T14:17:55.519Z,92442.61
2018-04-07T14:20:21.803Z,92439.48
2018-04-07T14:22:50.546Z,92438.23
2018-04-07T14:25:16.933Z,92441.28
2018-04-07T14:27:43.209Z,92449.76
2018-04-07T14:30:09.600Z,92442.52
2018-04-07T14:32:36.165Z,92434.80
2018-04-07T14:35:02.465Z,92440.01
2018-04-07T14:37:28.870Z,92441.48
2018-04-07T14:39:55.158Z,92442.22
2018-04-07T14:42:21.433Z,92447.44
2018-04-07T14:44:47.786Z,92447.45
2018-04-07T14:47:14.064Z,92450.83
2018-04-07T14:49:40.465Z,92455.91
2018-04-07T14:52:06.840Z,92456.80
2018-04-07T14:54:33.135Z,92460.34
2018-04-07T14:56:59.512Z,92455.34
2018-04-07T14:59:25.806Z,92450.02
2018-04-07T15:01:52.105Z,92454.14
2018-04-07T15:04:21.554Z,92450.98
2018-04-07T15:06:47.896Z,92451.05
2018-04-07T15:09:14.229Z,92454.02
2018-04-07T15:11:40.503Z,92458.19
2018-04-07T15:14:06.842Z,92456.81
2018-04-07T15:16:33.147Z,92458.05
2018-04-07T15:19:02.769Z,92454.33
2018-04-07T15:21:29.044Z,92457.88
2018-04-07T15:23:55.336Z,92456.63
2018-04-07T15:26:21.754Z,92453.45
2018-04-07T15:28:48.068Z,92454.80
2018-04-07T15:31:14.597Z,92461.77
2018-04-07T15:33:41.114Z,92461.58
2018-04-07T15:36:07.501Z,92459.88
2018-04-07T15:38:33.907Z,92468.84
2018-04-07T15:41:00.215Z,92465.30
2018-04-07T15:43:26.576Z,92474.80
2018-04-07T15:45:52.854Z,92473.39
2018-04-07T15:48:19.374Z,92484.72
2018-04-07T15:50:45.713Z,92479.92
2018-04-07T15:53:12.074Z,92484.47
2018-04-07T15:55:38.589Z,92474.37
2018-04-07T15:58:04.943Z,92488.18
2018-04-07T16:00:31.229Z,92486.84
2018-04-07T16:02:57.509Z,92490.95
2018-04-07T16:05:23.889Z,92492.69
2018-04-07T16:07:55.883Z,92500.32
2018-04-07T16:10:22.549Z,92507.55
2018-04-07T16:12:48.901Z,92504.33
2018-04-07T16:15:15.416Z,92509.30
2018-04-07T16:17:41.716Z,92511.72
2018-04-07T16:20:08.260Z,92524.41
2018-04-07T16:22:34.719Z,92517.63
2018-04-07T16:25:01.014Z,92514.82
2018-04-07T16:27:27.324Z,92512.73
2018-04-07T16:29:53.733Z,92520.52
2018-04-07T16:32:20.084Z,92522.33
2018-04-07T16:34:46.437Z,92512.07
2018-04-07T16:37:13.417Z,92518.33
2018-04-07T16:39:39.748Z,92519.39
2018-04-07T16:42:06.117Z,92517.22
2018-04-07T16:44:32.413Z,92520.86
2018-04-07T16:46:58.755Z,92518.37
2018-04-07T16:49:25.121Z,92516.83
2018-04-07T16:51:51.414Z,92515.05
2018-04-07T16:54:18.107Z,92513.97
2018-04-07T16:56:44.450Z,92507.81
2018-04-07T16:59:10.744Z,92505.19
2018-04-07T17:01:37.965Z,92501.69
2018-04-07T17:04:04.342Z,92498.99
2018-04-07T17:06:30.631Z,92501.18
2018-04-07T17:08:56.958Z,92498.55
2018-04-07T17:11:23.408Z,92500.78
2018-04-07T17:13:49.727Z,92505.60
2018-04-07T17:16:16.016Z,92501.83
2018-04-07T17:18:42.327Z,92502.61
2018-04-07T17:21:08.681Z,92512.20
2018-04-07T17:23:34.996Z,92517.77
2018-04-07T17:26:01.362Z,92515.70
2018-04-07T17:28:27.648Z,92514.26
2018-04-07T17:30:53.943Z,92513.57
2018-04-07T17:33:20.429Z,92515.61
2018-04-07T17:35:46.823Z,92517.06
2018-04-07T17:38:13.122Z,92524.80
2018-04-07T17:40:39.416Z,92527.14
2018-04-07T17:43:05.999Z,92526.98
2018-04-07T17:45:32.280Z,92535.34
2018-04-07T17:47:58.596Z,92543.64
2018-04-07T17:50:25.021Z,92549.55
2018-04-07T17:52:51.366Z,92551.67
2018-04-07T17:55:17.736Z,92548.91
2018-04-07T17:57:44.034Z,92550.12
2018-04-07T18:00:10.316Z,92547.09
2018-04-07T18:02:36.689Z,92555.34
2018-04-07T18:05:03.031Z,92563.21
2018-04-07T18:07:29.305Z,92566.46
2018-04-07T18:09:55.644Z,92576.95
2018-04-07T18:12:22.066Z,92567.45
2018-04-07T18:14:48.352Z,92580.28
2018-04-07T18:17:14.693Z,92569.16
2018-04-07T18:19:41.074Z,92579.48
2018-04-07T18:22:07.379Z,92578.38
2018-04-07T18:24:34.560Z,92582.73
2018-04-07T18:27:00.901Z,92579.53
2018-04-07T18:29:27.210Z,92575.70
2018-04-07T18:31:53.494Z,92573.52
2018-04-07T18:34:19.881Z,92581.66
2018-04-07T18:36:46.255Z,92571.84
2018-04-07T18:39:12.535Z,92576.59
2018-04-07T18:41:38.865Z,92577.28
2018-04-07T18:44:05.294Z,92571.47
2018-04-07T18:46:31.625Z,92569.52
2018-04-07T18:48:57.896Z,92567.98
2018-04-07T18:51:24.284Z,92586.36
2018-04-07T18:53:50.648Z,92586.45
2018-04-07T18:56:16.959Z,92593.20
2018-04-07T18:58:43.390Z,92600.89
2018-04-07T19:01:09.814Z,92603.98
2018-04-07T19:03:36.098Z,92606.08
2018-04-07T19:06:02.465Z,92607.76
2018-04-07T19:08:28.818Z,92600.19
2018-04-07T19:10:55.261Z,92607.73
2018-04-07T19:13:23.416Z,92607.42
2018-04-07T19:15:49.697Z,92609.70
2018-04-07T19:18:16.062Z,92608.75
2018-04-07T19:20:42.348Z,92611.38
2018-04-07T19:23:08.627Z,92608.13
2018-04-07T19:25:34.981Z,92617.55
2018-04-07T19:28:01.355Z,92618.43
2018-04-07T19:30:27.736Z,92609.27
2018-04-07T19:32:54.126Z,92624.06
2018-04-07T19:35:20.473Z,92621.42
2018-04-07T19:37:46.834Z,92612.84
2018-04-07T19:40:13.265Z,92616.33
2018-04-07T19:42:39.544Z,92628.42
2018-04-07T19:45:05.829Z,92630.22
2018-04-07T19:47:33.017Z,92625.71
2018-04-07T19:49:59.287Z,92635.81
2018-04-07T19:52:25.568Z,92634.17
2018-04-07T19:54:51.997Z,92638.37
2018-04-07T19:57:18.286Z,92647.33
2018-04-07T19:59:44.580Z,92647.25
2018-04-07T20:02:10.939Z,92640.97
2018-04-07T20:04:37.226Z,92648.08
2018-04-07T20:07:03.536Z,92642.10
2018-04-07T20:09:29.954Z,92658.32
2018-04-07T20:11:56.448Z,92653.13
2018-04-07T20:14:23.047Z,92657.25
2018-04-07T20:16:49.430Z,92652.72
2018-04-07T20:19:15.783Z,92644.17
2018-04-07T20:21:42.072Z,92646.45
2018-04-07T20:24:08.461Z,92654.73
2018-04-07T20:26:34.728Z,92661.62
2018-04-07T20:29:01.012Z,92658.14
2018-04-07T20:31:27.347Z,92655.80
2018-04-07T20:33:53.630Z,92656.38
2018-04-07T20:36:20.092Z,92654.83
2018-04-07T20:38:46.376Z,92658.30
2018-04-07T20:41:12.652Z,92668.95
2018-04-07T20:43:38.968Z,92670.28
2018-04-07T20:46:05.249Z,92671.91
2018-04-07T20:48:31.532Z,92670.41
2018-04-07T20:50:57.850Z,92674.91
2018-04-07T20:53:24.121Z,92682.48
2018-04-07T20:55:50.425Z,92683.98
2018-04-07T20:58:16.801Z,92679.89
2018-04-07T21:00:43.088Z,92671.75
2018-04-07T21:03:09.370Z,92679.95
2018-04-07T21:05:35.700Z,92681.84
2018-04-07T21:08:01.987Z,92679.98
2018-04-07T21:10:32.270Z,92686.15
2018-04-07T21:12:58.679Z,92681.09
2018-04-07T21:15:25.018Z,92681.91
2018-04-07T21:17:51.450Z,92679.99
2018-04-07T21:20:17.727Z,92676.09
2018-04-07T21:22:44.018Z,92673.58
2018-04-07T21:25:13.372Z,92682.50
2018-04-07T21:27:39.658Z,92677.42
2018-04-07T21:30:05.963Z,92673.48
2018-04-07T21:32:32.364Z,92669.20
2018-04-07T21:34:58.668Z,92662.48
2018-04-07T21:37:24.949Z,92662.84
2018-04-07T21:39:51.404Z,92666.59
2018-04-07T21:42:17.862Z,92678.17
2018-04-07T21:44:44.145Z,92675.18
2018-04-07T21:47:10.420Z,92679.19
2018-04-07T21:49:36.772Z,92677.41
2018-04-07T21:52:03.056Z,92671.88
2018-04-07T21:54:29.365Z,92673.00
2018-04-07T21:56:55.757Z,92665.31
2018-04-07T21:59:22.042Z,92668.26
2018-04-07T22:01:48.411Z,92668.45
2018-04-07T22:04:14.704Z,92672.20
2018-04-07T22:06:41.025Z,92667.64
2018-04-07T22:09:07.414Z,92672.11
2018-04-07T22:14:17.711Z,92667.59
2018-04-07T22:16:44.149Z,92662.84
2018-04-07T22:19:10.465Z,92671.88
2018-04-07T22:21:36.939Z,92673.89
2018-04-07T22:24:03.221Z,92670.86
2018-04-07T22:26:29.556Z,92671.48
2018-04-07T22:28:55.893Z,92676.78
2018-04-07T22:31:22.220Z,92673.77
2018-04-07T22:33:48.535Z,92673.12
2018-04-07T22:36:14.988Z,92675.33
2018-04-07T22:38:42.357Z,92674.55
2018-04-07T22:41:08.630Z,92669.84
2018-04-07T22:43:34.945Z,92672.41
2018-04-07T22:46:03.195Z,92668.22
2018-04-07T22:48:29.474Z,92667.50
2018-04-07T22:50:55.816Z,92665.12
2018-04-07T22:53:22.876Z,92660.09
2018-04-07T22:55:49.238Z,92660.57
2018-04-07T22:58:15.532Z,92661.29
2018-04-07T23:00:41.919Z,92662.00
2018-04-07T23:03:08.233Z,92653.92
2018-04-07T23:05:34.536Z,92651.87
2018-04-07T23:08:00.869Z,92645.47
2018-04-07T23:10:27.189Z,92637.55
2018-04-07T23:12:53.513Z,92638.20
2018-04-07T23:15:19.797Z,92641.09
2018-04-07T23:17:46.178Z,92644.87
2018-04-07T23:20:12.461Z,92638.49
2018-04-07T23:22:38.742Z,92638.16
2018-04-07T23:25:05.112Z,92640.08
2018-04-07T23:27:31.371Z,92641.36
2018-04-07T23:29:57.645Z,92636.45
2018-04-07T23:32:24.020Z,92642.57
2018-04-07T23:34:50.301Z,92645.56
2018-04-07T23:37:16.610Z,92639.30
2018-04-07T23:39:43.005Z,92626.47
2018-04-07T23:42:09.281Z,92630.48
2018-04-07T23:44:35.704Z,92629.31
2018-04-07T23:47:01.985Z,92627.11
2018-04-07T23:49:28.270Z,92624.34
2018-04-07T23:51:54.610Z,92622.64
2018-04-07T23:54:20.893Z,92622.20
2018-04-07T23:56:47.427Z,92612.98
2018-04-07T23:59:13.734Z,92616.82
